Date,TemperatureHighF,TemperatureAvgF,TemperatureLowF,DewpointHighF,DewpointAvgF,DewpointLowF,HumidityHigh,HumidityAvg,HumidityLow,PressureMaxIn,PressureMinIn,WindSpeedMaxMPH,WindSpeedAvgMPH,GustSpeedMaxMPH,PrecipitationSumIn
2013-2-1,24,24,23,14,13,13,68,65,62,29.92,29.91,1,0,1,0.00
2013-2-2,36,28,20,29,21,14,84,74,62,29.91,29.62,8,2,9,0.01
2013-2-3,50,38,27,36,28,20,92,70,39,29.72,29.54,8,4,15,0.09
2013-2-4,50,38,23,28,23,19,87,59,32,29.70,29.50,6,2,8,0.00
2013-2-5,63,49,40,40,35,26,82,60,36,29.58,29.48,9,3,13,0.00
2013-2-6,68,47,31,38,30,15,90,57,13,29.74,29.58,6,2,8,0.00
2013-2-7,57,45,40,44,35,29,85,68,34,29.70,29.50,4,1,4,0.00
2013-2-8,56,46,38,48,38,28,93,75,45,29.83,29.45,10,4,15,0.06
2013-2-9,60,45,28,28,21,14,81,43,20,29.90,29.77,9,3,11,0.19
2013-2-10,64,48,38,44,32,22,90,59,23,29.79,29.54,6,2,11,0.20
2013-2-11,58,52,44,53,43,29,93,75,45,29.67,29.53,10,4,15,0.08
2013-2-12,58,49,35,37,29,21,79,50,25,29.73,29.42,4,1,11,0.05
2013-2-13,48,43,38,45,38,32,91,83,72,29.54,29.25,6,1,14,0.26
2013-2-14,57,44,36,35,33,31,85,67,41,29.63,29.54,5,1,14,0.00
2013-2-15,58,42,33,39,33,28,87,72,47,29.66,29.57,5,2,14,0.01
2013-2-16,41,32,27,28,18,6,86,58,29,30.08,29.55,6,3,14,0.00
2013-2-17,45,32,20,14,10,1,66,43,17,30.21,30.08,6,2,13,0.00
2013-2-18,63,42,23,24,20,14,75,46,21,30.24,29.94,8,2,18,0.00
2013-2-19,55,45,34,42,26,0,88,53,13,30.13,29.87,10,4,22,0.25
2013-2-20,47,35,25,19,12,-1,70,42,15,30.18,30.10,4,1,9,0.00
2013-2-21,56,39,26,36,18,9,85,46,16,30.19,29.93,5,2,13,0.52
2013-2-22,59,48,39,46,42,35,91,79,60,30.02,29.93,5,2,14,0.06
2013-2-23,62,50,41,49,45,39,91,81,58,29.99,29.80,3,1,8,0.07
2013-2-24,60,44,31,39,26,15,91,53,19,30.03,29.88,4,1,9,0.00
2013-2-25,62,46,32,33,26,22,69,47,25,30.01,29.75,4,2,10,0.00
2013-2-26,64,50,42,49,41,33,89,71,51,29.75,29.41,10,4,25,0.47
2013-2-27,50,42,40,36,33,30,78,69,53,29.82,29.66,8,4,18,0.01
2013-2-28,43,38,35,31,27,22,82,65,47,29.95,29.77,6,3,16,0.00
2013-3-1,43,38,35,34,30,27,84,74,60,29.94,29.87,4,1,8,0.04
2013-3-2,40,35,30,33,27,18,90,74,57,30.02,29.88,6,2,13,0.06
2013-3-3,38,31,24,22,17,13,75,55,41,30.05,29.98,4,2,12,0.00
2013-3-4,56,38,19,26,18,7,86,52,17,30.13,29.93,4,1,7,0.00
2013-3-5,48,41,35,46,34,24,93,79,48,29.98,29.59,10,2,27,1.31
2013-3-6,36,33,30,29,27,22,87,80,69,30.20,29.81,6,1,14,0.01
2013-3-7,39,35,33,30,27,25,86,74,64,30.30,30.16,3,1,8,0.00
2013-3-8,58,41,29,28,25,23,78,56,28,30.35,30.23,4,2,14,0.00
2013-3-9,69,49,30,36,28,22,80,50,17,30.25,30.11,4,1,9,0.00
2013-3-10,78,58,41,40,32,23,75,43,15,30.12,29.94,7,2,17,0.00
2013-3-11,68,58,47,52,46,33,90,66,34,29.94,29.71,8,3,23,0.59
2013-3-12,63,47,39,42,32,26,84,59,27,30.06,29.84,4,1,10,0.00
2013-3-13,50,40,33,30,22,14,79,52,29,30.26,30.02,8,2,18,0.00
2013-3-14,55,39,26,24,16,11,67,43,19,30.33,30.18,4,2,12,0.00
2013-3-15,72,52,32,44,33,24,84,52,28,30.20,29.85,7,2,14,0.00
2013-3-16,81,67,57,48,44,40,55,44,27,29.86,29.73,10,5,22,0.00
2013-3-17,79,67,54,50,47,44,77,51,31,29.92,29.79,7,2,18,0.00
2013-3-18,67,56,52,54,49,44,93,78,54,29.86,29.71,7,2,27,0.90
2013-3-19,64,51,35,52,25,-2,93,47,10,30.09,29.80,6,2,14,0.01
2013-3-20,60,45,31,32,13,0,75,32,10,30.09,29.84,8,2,20,0.00
2013-3-21,48,34,24,17,10,4,57,37,17,29.97,29.87,6,2,14,0.00
2013-3-22,54,38,25,29,17,11,66,44,18,30.02,29.93,3,1,8,0.00
2013-3-23,57,47,40,42,35,26,80,65,52,29.98,29.72,4,1,9,0.02
2013-3-24,58,50,42,51,44,32,92,82,64,29.75,29.33,8,2,27,0.72
2013-3-25,42,36,32,33,28,24,86,75,53,29.97,29.56,8,4,21,0.02
2013-3-26,44,36,32,32,27,24,85,72,47,30.23,29.95,4,2,11,0.01
2013-3-27,58,42,32,30,24,17,81,54,22,30.33,30.19,5,1,12,0.00
2013-3-28,62,43,26,31,19,1,83,48,10,30.35,30.22,5,1,11,0.00
2013-3-29,54,42,31,40,31,19,90,68,44,30.35,30.23,4,1,9,0.19
2013-3-30,70,52,42,48,43,40,91,73,40,30.25,30.01,3,1,8,0.22
2013-3-31,65,56,51,55,52,48,92,85,66,30.01,29.86,6,2,13,0.38
2013-4-1,70,54,40,51,42,31,95,70,26,30.08,29.91,9,2,21,0.02
2013-4-2,64,49,36,32,19,10,62,34,13,30.23,30.08,4,2,11,0.00
2013-4-3,63,50,35,21,17,11,54,29,14,30.28,30.18,4,2,13,0.00
2013-4-4,51,45,42,41,32,13,89,66,23,30.19,29.98,5,1,14,0.72
2013-4-5,75,53,41,43,36,21,90,61,16,30.09,29.97,4,1,11,0.01
2013-4-6,78,57,36,42,36,26,86,52,17,30.18,30.05,4,1,11,0.00
2013-4-7,78,61,47,45,39,35,65,46,23,30.15,30.04,10,2,15,0.00
2013-4-8,83,66,50,54,48,42,80,54,30,30.10,30.00,8,2,17,0.00
2013-4-9,86,70,52,57,52,48,83,57,30,30.19,30.02,6,2,17,0.00
2013-4-10,91,74,56,58,54,50,83,54,27,30.12,29.88,4,1,13,0.00
2013-4-11,88,74,62,62,55,51,89,56,29,29.92,29.65,6,2,15,0.01
2013-4-12,70,61,50,61,45,31,90,60,25,29.96,29.59,7,2,18,0.15
2013-4-13,79,60,42,45,37,26,84,50,16,30.08,29.95,3,1,8,0.00
2013-4-14,77,63,43,53,45,37,81,56,26,30.07,29.95,5,1,15,0.01
2013-4-15,85,68,55,56,53,50,86,62,34,30.09,29.93,3,1,8,0.00
2013-4-16,88,72,55,62,58,51,88,63,41,30.24,30.09,4,1,10,0.00
2013-4-17,78,67,62,64,60,58,90,80,58,30.26,30.06,5,1,15,0.02
2013-4-18,89,73,59,64,56,48,93,62,27,30.07,29.83,7,2,18,0.00
2013-4-19,74,60,47,62,48,32,91,66,50,30.09,29.69,7,3,21,1.13
2013-4-20,69,51,34,37,29,16,85,48,15,30.29,30.09,4,1,11,0.00
2013-4-21,73,55,39,40,33,26,74,46,19,30.39,30.25,3,1,10,0.05
2013-4-22,76,59,42,43,39,34,81,51,24,30.34,30.15,3,1,10,0.00
2013-4-23,79,62,44,49,43,38,86,55,28,30.23,30.03,3,1,9,0.00
2013-4-24,75,60,47,61,50,38,85,71,49,30.24,29.99,6,2,15,0.12
2013-4-25,72,54,38,41,36,27,88,54,21,30.35,30.24,4,1,8,0.00
2013-4-26,73,56,39,44,36,30,82,52,22,30.41,30.28,3,1,11,0.00
2013-4-27,58,55,52,55,50,43,92,84,59,30.37,30.12,2,0,7,0.86
2013-4-28,61,56,52,58,54,50,94,93,91,30.13,29.95,4,1,14,1.50
2013-4-29,78,64,53,59,55,52,95,77,43,30.06,29.95,2,1,10,0.00
2013-4-30,86,68,51,60,53,46,92,65,26,30.09,29.97,3,1,7,0.00
2013-5-1,81,69,57,58,54,49,89,62,39,30.21,30.09,4,1,12,0.00
2013-5-2,82,68,55,59,53,50,83,61,41,30.21,30.09,3,1,8,0.00
2013-5-3,81,68,59,56,51,44,75,55,33,30.14,29.98,4,2,11,0.00
2013-5-4,64,58,54,54,48,36,91,72,42,29.99,29.91,6,1,12,0.69
2013-5-5,59,56,52,56,53,50,92,90,85,30.76,29.86,4,1,11,1.10
2013-5-6,69,54,49,51,48,45,93,82,51,29.99,29.84,4,1,8,0.17
2013-5-7,74,64,47,54,50,44,91,63,41,30.06,29.98,3,1,8,0.17
2013-5-8,76,65,0,61,56,53,92,74,51,30.06,29.90,3,0,10,2.36
2013-5-9,86,69,54,64,57,52,93,70,37,30.04,29.94,3,0,8,0.00
2013-5-10,78,68,58,62,57,54,90,70,50,30.00,29.86,4,1,11,0.00
2013-5-11,78,68,54,67,58,48,88,72,48,29.93,29.79,4,1,11,0.20
2013-5-12,69,59,50,50,37,22,85,49,20,30.06,29.91,3,1,9,0.00
2013-5-13,73,56,39,41,33,21,84,47,16,30.16,27.06,3,1,8,0.00
2013-5-14,82,64,41,54,44,36,86,53,26,30.15,29.94,4,1,13,0.00
2013-5-15,91,76,62,60,55,52,73,51,28,30.07,29.89,3,1,10,0.00
2013-5-16,86,73,60,60,56,51,75,57,37,30.00,29.88,2,0,10,0.00
2013-5-17,86,72,61,65,61,58,89,70,41,30.03,29.92,2,0,5,0.01
2013-5-18,76,70,64,69,65,62,92,86,75,29.99,29.92,2,0,8,0.53
2013-5-19,82,70,63,71,66,60,94,87,68,29.99,29.92,2,0,8,0.28
2013-5-20,88,73,61,68,64,59,95,76,49,30.06,29.91,2,0,8,0.00
2013-5-21,93,79,64,71,65,59,93,65,41,29.99,29.85,3,1,16,0.00
2013-5-22,91,74,63,70,63,60,90,72,41,29.90,29.76,4,1,11,0.02
2013-5-23,86,74,65,66,60,51,91,65,39,29.94,29.81,3,1,14,0.00
2013-5-24,71,64,53,55,46,33,86,56,26,30.20,29.94,4,2,12,0.01
2013-5-25,79,63,45,47,42,31,87,52,20,30.26,30.09,3,1,9,0.00
2013-5-26,83,67,55,54,49,44,83,55,28,30.22,30.09,3,0,8,0.01
2013-5-27,89,72,55,58,55,51,88,59,30,30.15,30.00,2,1,9,0.00
2013-5-28,91,77,62,64,59,56,85,58,32,30.11,29.99,3,1,11,0.00
2013-5-29,93,78,62,64,60,54,85,56,33,30.14,30.01,2,0,8,0.00
2013-5-30,93,78,62,64,60,56,87,57,31,30.16,30.01,3,0,8,0.00
2013-5-31,92,78,63,65,60,-37,86,58,32,30.11,29.97,3,1,10,0.00
2013-6-1,91,78,65,68,64,59,87,64,37,30.01,29.87,4,1,13,0.14
2013-6-2,80,70,68,70,67,64,93,89,68,29.90,29.81,2,0,8,1.22
2013-6-3,84,73,65,68,63,58,95,73,45,29.94,29.83,2,1,9,0.01
2013-6-4,89,74,61,65,59,55,88,63,35,29.99,29.91,3,1,10,0.00
2013-6-5,121,74,64,100,64,60,90,72,42,29.98,29.84,2,0,8,0.18
2013-6-6,87,78,65,70,66,63,93,69,50,29.87,29.68,2,1,9,0.01
2013-6-7,86,76,69,69,66,59,90,72,45,29.80,29.65,4,1,8,0.05
2013-6-8,85,76,68,68,64,61,92,70,46,30.00,29.79,2,0,8,0.01
2013-6-9,92,74,65,70,66,62,91,77,44,30.04,29.91,5,0,16,0.34
2013-6-10,86,75,69,71,66,61,92,75,46,29.91,29.80,3,1,15,0.59
2013-6-11,91,77,64,71,66,62,95,71,43,29.98,29.88,2,0,7,0.00
2013-6-12,97,86,70,75,72,66,89,63,45,29.99,29.86,2,1,8,0.00
2013-6-13,88,80,70,75,71,63,88,73,62,29.88,29.69,3,1,10,0.56
2013-6-14,87,76,61,63,58,53,91,56,36,29.98,29.84,2,1,8,0.01
2013-6-15,90,77,60,64,60,57,89,59,34,30.07,29.97,2,0,8,0.00
2013-6-16,92,82,66,69,65,62,90,59,40,30.06,29.93,2,1,9,0.54
2013-6-17,85,76,70,72,69,67,93,81,57,29.99,29.85,2,0,8,0.11
2013-6-18,81,73,68,74,67,64,93,81,70,29.90,29.79,3,0,7,0.92
2013-6-19,88,78,64,69,65,61,93,65,43,30.01,29.88,2,1,8,0.01
2013-6-20,91,77,66,70,66,62,92,70,41,30.13,30.00,2,0,7,0.00
2013-6-21,87,77,66,69,66,61,91,70,49,30.19,30.08,2,0,7,0.00
2013-6-22,93,78,66,69,65,62,91,67,41,30.18,30.02,3,1,8,0.00
2013-6-23,92,78,66,71,66,63,90,69,42,30.15,30.03,2,0,8,0.00
2013-6-24,91,79,68,74,68,65,91,72,49,30.15,30.01,2,0,6,0.00
2013-6-25,88,79,72,74,70,67,90,76,60,30.10,29.96,2,0,7,0.00
2013-6-26,88,77,71,77,72,67,93,84,64,29.99,29.81,2,0,8,0.00
2013-6-27,88,78,63,85,74,62,99,89,66,29.89,29.72,3,1,12,0.00
2013-6-28,88,75,70,77,70,66,98,87,58,29.79,29.61,2,0,4,0.00
2013-6-29,87,76,66,77,66,60,99,76,43,29.65,29.59,3,0,17,0.00
2013-6-30,88,77,66,69,64,55,91,66,35,29.74,29.63,2,0,7,0.00
2013-7-1,86,74,65,72,66,62,94,79,55,29.84,29.71,2,0,8,0.40
2013-7-2,84,74,69,72,69,66,93,84,64,30.00,29.84,2,0,8,0.35
2013-7-3,76,71,68,72,68,66,94,91,82,30.10,29.99,2,0,8,0.43
2013-7-4,79,72,67,73,69,64,96,90,79,30.11,30.01,3,0,8,0.25
2013-7-5,81,75,70,74,70,68,96,85,69,30.11,30.03,2,0,8,0.05
2013-7-6,83,72,68,74,69,66,95,90,72,30.09,30.03,2,0,7,0.92
2013-7-7,74,70,68,71,68,66,98,94,86,30.11,30.03,2,0,6,1.48
2013-7-8,86,76,68,74,70,66,97,81,54,30.16,30.03,2,0,6,0.00
2013-7-9,89,78,69,77,72,67,95,80,56,30.11,29.99,2,0,7,0.00
2013-7-10,89,78,73,78,73,68,92,85,64,30.03,29.86,3,0,10,0.32
2013-7-11,86,77,71,74,71,69,94,84,63,29.92,29.83,2,0,7,0.04
2013-7-12,85,77,70,70,66,61,92,71,49,29.93,29.85,3,1,8,0.01
2013-7-13,86,75,68,71,66,62,89,75,53,30.01,29.89,3,0,9,0.08
2013-7-14,88,77,69,74,69,65,91,76,53,30.15,30.00,4,1,13,0.01
2013-7-15,89,78,55,71,68,53,92,73,47,30.24,29.74,2,0,7,0.09
2013-7-16,90,81,70,73,70,67,92,71,51,30.11,29.92,2,0,8,0.00
2013-7-17,92,81,72,75,71,67,92,73,46,30.10,29.91,5,1,14,0.05
2013-7-18,89,80,71,75,72,68,92,77,56,30.00,29.78,2,0,6,0.00
2013-7-19,94,84,72,76,72,69,92,70,53,29.93,29.66,2,0,6,0.00
2013-7-20,92,82,72,76,72,68,90,74,49,29.83,29.52,3,0,8,0.17
2013-7-21,85,75,72,78,72,69,95,89,74,29.73,29.49,3,0,8,0.30
2013-7-22,84,76,72,74,71,70,94,87,69,29.64,29.39,3,0,12,0.21
2013-7-23,87,78,71,75,72,67,93,80,66,29.67,29.39,2,0,8,0.01
2013-7-24,86,78,73,75,72,66,93,81,61,29.66,29.48,2,0,6,0.00
2013-7-25,85,78,67,68,64,61,91,64,48,29.81,29.65,2,1,8,0.00
2013-7-26,87,74,63,70,66,60,90,75,53,29.88,29.66,5,0,10,0.07
2013-7-27,81,76,70,72,69,65,93,80,66,29.83,29.47,2,0,5,0.06
2013-7-28,85,77,69,69,64,56,93,65,47,29.97,29.53,2,1,8,0.00
2013-7-29,82,73,55,61,56,47,92,58,31,30.34,29.81,2,1,6,0.00
2013-7-30,79,73,61,66,63,58,90,71,56,30.34,29.83,1,0,4,0.00
2013-7-31,78,74,67,70,68,63,92,83,72,30.06,29.72,3,0,7,0.05
2013-8-1,85,79,70,72,68,66,94,71,56,29.88,29.66,3,1,8,0.00
2013-8-2,87,78,65,68,64,60,93,64,41,29.91,29.70,3,0,7,0.00
2013-8-3,87,80,69,72,69,64,89,70,54,29.88,29.55,2,0,5,0.00
2013-8-4,85,80,72,73,65,58,92,62,42,29.92,29.61,3,1,9,0.00
2013-8-5,90,80,63,67,62,53,88,58,34,29.96,29.49,2,1,7,0.00
2013-8-6,88,80,70,73,69,64,89,70,54,29.77,29.53,3,0,8,0.01
2013-8-7,85,79,74,75,73,70,92,82,71,29.78,29.56,2,0,7,0.08
2013-8-8,84,78,72,76,73,68,90,83,72,29.95,29.68,1,0,4,0.01
2013-8-9,92,81,72,78,74,69,93,79,62,29.99,29.80,2,0,9,0.07
2013-8-10,92,78,73,78,73,70,95,86,63,29.87,29.71,2,0,7,0.34
2013-8-11,89,79,71,77,74,70,97,84,63,29.99,29.75,4,0,11,0.18
2013-8-12,87,79,71,77,74,70,97,83,68,29.94,29.70,1,0,6,0.01
2013-8-13,86,80,73,75,72,66,94,77,61,29.76,29.49,3,1,8,0.06
2013-8-14,81,74,67,66,60,55,86,63,48,29.89,29.66,3,1,8,0.00
2013-8-15,83,76,63,68,62,54,88,65,52,30.29,29.47,2,1,7,0.02
2013-8-16,81,75,67,67,64,61,89,70,53,30.04,29.58,2,0,7,0.01
2013-8-17,77,71,67,67,63,60,93,77,62,30.05,29.71,2,0,7,0.28
2013-8-18,80,73,68,72,68,66,96,86,67,30.17,29.79,2,0,8,0.21
2013-8-19,80,75,69,72,70,68,96,83,71,30.05,29.65,2,0,5,0.06
2013-8-20,86,77,69,73,71,67,94,81,59,29.92,29.71,3,1,9,0.15
2013-8-21,84,75,69,74,71,68,96,87,70,29.96,29.78,2,0,6,0.11
2013-8-22,88,81,69,75,72,68,97,75,57,29.97,29.76,2,0,4,0.01
2013-8-23,87,78,70,76,71,67,94,79,60,29.88,29.71,2,0,7,0.00
2013-8-24,86,78,68,73,65,57,95,68,39,30.05,29.78,3,1,9,0.00
2013-8-25,86,78,63,67,63,59,91,63,48,30.25,29.91,2,0,6,0.00
2013-8-26,85,78,63,68,65,60,92,65,49,30.25,29.75,2,0,7,0.00
2013-8-27,86,78,67,71,68,64,93,74,59,29.98,29.71,2,0,4,0.00
2013-8-28,89,80,70,74,70,67,94,73,53,29.95,29.68,2,0,4,0.00
2013-8-29,90,82,74,75,72,70,90,73,56,29.84,29.61,2,0,4,0.00
2013-8-30,93,83,70,76,72,68,93,71,50,29.81,29.53,2,0,8,0.00
2013-8-31,92,81,71,77,72,66,90,76,52,29.85,29.51,4,0,11,0.14
2013-9-1,88,79,70,76,72,68,93,80,62,29.71,29.54,4,1,8,0.06
2013-9-2,86,79,70,74,72,68,95,79,66,29.81,29.49,2,0,7,0.00
2013-9-3,86,78,66,73,68,64,96,74,56,29.78,29.60,4,1,8,0.66
2013-9-4,85,76,63,67,64,60,92,68,51,29.92,29.66,3,1,8,0.00
2013-9-5,85,73,62,67,62,54,92,71,38,30.04,29.72,2,0,7,0.00
2013-9-6,86,77,64,67,63,57,92,64,40,30.06,29.73,6,1,11,0.00
2013-9-7,86,79,62,71,67,60,93,68,51,29.97,29.73,2,1,7,0.00
2013-9-8,87,79,68,72,68,64,92,70,47,29.86,29.72,2,0,6,0.00
2013-9-9,92,81,67,72,68,64,93,67,46,29.92,29.80,3,1,7,0.00
2013-9-10,92,82,68,72,69,65,93,65,46,30.03,29.88,2,1,14,0.00
2013-9-11,90,81,69,73,70,66,92,69,50,30.02,29.87,3,1,8,0.00
2013-9-12,87,78,68,74,71,66,94,80,62,29.92,29.71,4,1,11,0.33
2013-9-13,79,71,63,68,58,49,97,65,39,29.83,29.70,3,1,11,0.00
2013-9-14,76,67,53,56,53,49,88,62,44,30.10,29.86,3,1,10,0.00
2013-9-15,82,68,55,63,58,52,91,72,49,30.10,29.82,2,0,7,0.00
2013-9-16,83,74,61,67,62,59,93,70,47,30.05,29.93,3,1,8,0.00
2013-9-17,79,71,64,66,62,58,86,76,59,30.10,29.89,2,0,3,0.00
2013-9-18,76,69,65,66,63,60,87,80,65,30.10,29.95,2,0,4,0.00
2013-9-19,84,74,61,67,65,59,94,74,57,30.04,29.85,2,0,10,0.00
2013-9-20,86,77,64,68,65,61,93,68,48,29.93,29.67,2,1,10,0.00
2013-9-21,70,67,65,67,65,62,96,92,84,29.71,29.54,2,0,6,1.19
2013-9-22,76,68,55,59,55,52,94,66,46,29.85,29.69,5,1,11,0.00
2013-9-23,79,67,54,61,58,52,92,75,50,29.98,29.78,3,0,5,0.00
2013-9-24,80,69,59,64,62,56,94,78,57,29.98,29.66,2,0,6,0.00
2013-9-25,70,68,67,66,66,64,95,92,88,29.75,29.67,1,0,2,0.01
2013-9-26,80,71,62,67,62,58,97,76,50,29.87,29.74,3,0,8,0.00
2013-9-27,79,70,56,65,59,54,94,70,46,30.07,29.87,3,0,8,0.00
2013-9-28,77,70,58,63,60,55,93,72,53,30.12,29.84,2,0,6,0.00
2013-9-29,73,68,62,61,60,58,91,76,61,30.06,29.83,2,0,8,0.00
2013-9-30,77,62,56,63,57,54,95,85,54,30.00,29.85,2,0,5,0.00
2013-10-1,79,68,57,64,60,55,94,79,56,30.11,29.88,2,0,3,0.00
2013-10-2,81,70,60,67,63,58,94,79,61,30.12,29.86,2,0,4,0.00
2013-10-3,84,75,65,68,66,64,95,74,54,30.01,29.80,2,0,8,0.00
2013-10-4,84,70,61,67,63,59,94,82,53,30.07,29.86,3,0,4,0.00
2013-10-5,86,77,62,68,66,60,94,71,48,30.04,29.76,2,0,6,0.00
2013-10-6,86,78,62,68,64,60,93,64,46,29.86,29.59,4,1,14,0.00
2013-10-7,69,63,56,60,52,46,95,69,46,30.01,29.69,4,1,9,0.00
2013-10-8,74,59,50,54,49,45,84,72,44,30.14,29.95,4,1,8,0.00
2013-10-9,77,67,51,58,55,49,92,67,48,30.17,29.94,2,1,8,0.00
2013-10-10,76,62,52,56,53,50,93,75,42,30.14,29.88,2,0,4,0.00
2013-10-11,79,63,52,59,54,50,92,75,47,30.07,29.84,3,0,4,0.00
2013-10-12,80,69,54,62,58,52,94,69,43,30.02,29.89,3,0,7,0.00
2013-10-13,77,70,56,63,61,54,93,75,58,30.16,29.92,2,0,10,0.00
2013-10-14,79,70,60,64,61,57,92,74,53,30.15,29.86,4,1,7,0.00
2013-10-15,76,69,61,64,62,59,94,79,64,30.02,29.86,1,0,4,0.00
2013-10-16,71,66,61,62,60,57,93,81,73,29.97,29.81,2,0,5,0.00
2013-10-17,68,65,60,68,62,53,97,91,79,29.87,29.72,2,1,8,0.00
2013-10-18,65,58,48,52,49,47,95,73,53,30.08,29.82,3,1,6,0.00
2013-10-19,66,58,46,55,50,42,93,78,64,29.98,29.79,3,1,9,0.00
2013-10-20,65,50,38,45,41,36,94,74,41,30.15,29.91,3,0,8,0.00
2013-10-21,68,52,39,51,45,37,94,79,46,30.20,29.82,2,0,4,0.00
2013-10-22,66,59,51,53,51,48,88,74,63,30.00,29.71,2,0,7,0.00
2013-10-23,53,47,36,49,38,32,90,71,57,30.12,29.76,4,1,11,0.00
2013-10-24,54,46,34,42,38,32,91,77,58,30.26,30.00,2,0,8,0.00
2013-10-25,51,44,31,33,30,26,86,60,39,30.56,30.22,3,1,8,0.00
2013-10-26,58,48,29,38,33,26,90,58,36,30.53,29.97,3,2,11,0.00
2013-10-27,62,58,50,51,44,35,79,61,50,30.18,29.94,2,0,6,0.00
2013-10-28,68,59,54,57,53,49,94,81,63,30.22,30.06,2,0,4,0.00
2013-10-29,71,63,53,58,55,50,94,75,54,30.31,30.05,3,0,8,0.00
2013-10-30,77,65,59,60,57,55,89,75,51,30.22,29.93,4,0,8,0.00
2013-10-31,73,68,60,62,59,56,89,72,62,30.04,29.40,6,2,20,0.00
2013-11-1,71,63,52,64,52,44,95,69,47,29.73,29.55,5,1,9,0.00
2013-11-2,64,55,44,49,42,36,93,63,39,29.95,29.68,4,1,9,0.00
2013-11-3,59,51,39,43,38,35,93,63,43,30.32,30.03,3,1,8,0.00
2013-11-4,64,54,36,42,39,33,90,61,38,30.51,30.24,2,0,7,0.00
2013-11-5,68,58,45,45,41,37,83,54,39,30.52,30.15,3,1,7,0.00
2013-11-6,74,62,46,55,50,37,73,65,48,30.30,29.88,3,1,6,0.00
2013-11-7,64,52,42,58,40,32,95,67,45,30.27,29.94,7,3,15,0.00
2013-11-8,56,45,31,36,28,21,91,55,27,30.52,30.25,5,1,11,0.00
2013-11-9,59,44,31,38,32,27,88,67,43,30.50,30.08,4,1,10,0.00
2013-11-10,67,56,37,44,36,23,87,50,23,30.44,30.06,4,1,8,0.00
2013-11-11,63,52,33,37,31,26,79,48,28,30.46,30.06,4,1,8,0.00
2013-11-12,52,38,29,42,26,15,79,61,46,30.70,30.14,7,4,20,0.00
2013-11-13,43,30,24,21,18,16,74,63,35,30.88,30.37,4,1,9,0.00
2013-11-14,56,37,23,31,23,19,86,59,24,30.79,30.18,4,0,5,0.00
2013-11-15,50,43,30,43,35,23,92,73,48,30.54,30.07,2,0,6,0.00
2013-11-16,68,55,45,58,51,44,95,85,68,30.31,29.91,3,0,5,0.00
2013-11-17,67,59,52,66,57,50,98,93,76,30.07,29.61,6,1,14,0.00
2013-11-18,65,58,48,62,44,30,98,65,28,30.11,29.74,5,2,11,0.00
2013-11-19,55,47,37,32,27,23,70,48,32,30.36,30.14,4,2,11,0.00
2013-11-20,58,48,34,34,32,28,80,56,34,30.44,30.18,3,1,8,0.00
2013-11-21,62,53,37,46,41,31,80,64,53,30.53,30.16,2,1,10,0.00
2013-11-22,58,56,52,56,53,45,97,90,75,30.34,30.08,5,0,12,0.00
2013-11-23,53,45,39,49,35,26,89,70,52,30.40,30.16,7,3,13,0.00
2013-11-24,36,30,23,17,10,4,67,45,26,30.88,30.36,6,3,13,0.00
2013-11-25,38,33,25,30,18,10,87,54,41,30.48,30.13,3,1,6,0.00
2013-11-26,44,38,33,43,37,30,98,95,88,30.16,29.65,5,2,17,0.00
2013-11-27,36,33,32,34,30,29,95,90,86,30.00,29.87,4,2,11,0.00
2013-11-28,42,30,22,26,22,18,84,71,50,30.83,30.65,3,1,5,0.00
2013-11-29,50,34,23,32,25,21,92,72,40,30.94,30.82,4,1,8,0.00
2013-11-30,52,39,26,34,29,23,90,70,48,30.88,30.21,4,1,7,0.00
2013-12-1,56,43,26,38,33,23,93,70,50,30.32,29.92,4,1,9,0.00